sensor_id;sensor_type;location;lat;lon;timestamp;pressure;altitude;pressure_sealevel;temperature
34310;BMP280;61664;48.112;11.662;2023-07-30T00:00:49;95189.13;;;22.86
34310;BMP280;61664;48.112;11.662;2023-07-30T00:03:17;95202.22;;;22.80
34310;BMP280;61664;48.112;11.662;2023-07-30T00:05:55;95207.34;;;22.60
34310;BMP280;61664;48.112;11.662;2023-07-30T00:08:23;95218.03;;;22.43
34310;BMP280;61664;48.112;11.662;2023-07-30T00:10:50;95230.38;;;22.21
34310;BMP280;61664;48.112;11.662;2023-07-30T00:13:17;95226.16;;;22.05
34310;BMP280;61664;48.112;11.662;2023-07-30T00:15:48;95223.28;;;21.96
34310;BMP280;61664;48.112;11.662;2023-07-30T00:18:15;95215.09;;;21.88
34310;BMP280;61664;48.112;11.662;2023-07-30T00:20:43;95223.59;;;21.84
34310;BMP280;61664;48.112;11.662;2023-07-30T00:23:10;95232.09;;;21.81
34310;BMP280;61664;48.112;11.662;2023-07-30T00:25:36;95241.38;;;21.85
34310;BMP280;61664;48.112;11.662;2023-07-30T00:28:03;95232.47;;;21.85
34310;BMP280;61664;48.112;11.662;2023-07-30T00:30:30;95225.97;;;21.80
34310;BMP280;61664;48.112;11.662;2023-07-30T00:32:57;95242.47;;;21.82
34310;BMP280;61664;48.112;11.662;2023-07-30T00:35:24;95244.28;;;21.80
34310;BMP280;61664;48.112;11.662;2023-07-30T00:37:51;95246.03;;;21.77
34310;BMP280;61664;48.112;11.662;2023-07-30T00:40:18;95235.38;;;21.72
34310;BMP280;61664;48.112;11.662;2023-07-30T00:42:45;95233.00;;;21.76
34310;BMP280;61664;48.112;11.662;2023-07-30T00:45:12;95242.06;;;21.71
34310;BMP280;61664;48.112;11.662;2023-07-30T00:47:42;95238.63;;;21.70
34310;BMP280;61664;48.112;11.662;2023-07-30T00:50:12;95248.59;;;21.75
34310;BMP280;61664;48.112;11.662;2023-07-30T00:52:41;95244.78;;;21.78
34310;BMP280;61664;48.112;11.662;2023-07-30T00:55:09;95232.44;;;21.77
34310;BMP280;61664;48.112;11.662;2023-07-30T00:57:37;95239.19;;;21.76
34310;BMP280;61664;48.112;11.662;2023-07-30T01:00:05;95241.72;;;21.82
34310;BMP280;61664;48.112;11.662;2023-07-30T01:02:33;95238.28;;;21.81
34310;BMP280;61664;48.112;11.662;2023-07-30T01:05:01;95240.63;;;21.85
34310;BMP280;61664;48.112;11.662;2023-07-30T01:07:31;95234.13;;;21.88
34310;BMP280;61664;48.112;11.662;2023-07-30T01:10:00;95222.19;;;21.91
34310;BMP280;61664;48.112;11.662;2023-07-30T01:12:30;95218.19;;;21.92
34310;BMP280;61664;48.112;11.662;2023-07-30T01:14:59;95219.47;;;21.91
34310;BMP280;61664;48.112;11.662;2023-07-30T01:17:26;95218.72;;;21.91
34310;BMP280;61664;48.112;11.662;2023-07-30T01:19:53;95226.66;;;21.89
34310;BMP280;61664;48.112;11.662;2023-07-30T01:22:23;95234.31;;;21.90
34310;BMP280;61664;48.112;11.662;2023-07-30T01:24:51;95235.06;;;21.91
34310;BMP280;61664;48.112;11.662;2023-07-30T01:27:28;95225.41;;;21.82
34310;BMP280;61664;48.112;11.662;2023-07-30T01:32:32;95239.56;;;21.88
34310;BMP280;61664;48.112;11.662;2023-07-30T01:35:02;95243.53;;;21.87
34310;BMP280;61664;48.112;11.662;2023-07-30T01:37:30;95233.75;;;21.84
34310;BMP280;61664;48.112;11.662;2023-07-30T01:39:59;95223.94;;;21.81
34310;BMP280;61664;48.112;11.662;2023-07-30T01:42:30;95224.88;;;21.83
34310;BMP280;61664;48.112;11.662;2023-07-30T01:44:57;95234.44;;;21.77
34310;BMP280;61664;48.112;11.662;2023-07-30T01:47:24;95228.47;;;21.78
34310;BMP280;61664;48.112;11.662;2023-07-30T01:49:51;95221.22;;;21.73
34310;BMP280;61664;48.112;11.662;2023-07-30T01:52:18;95235.41;;;21.79
34310;BMP280;61664;48.112;11.662;2023-07-30T01:54:44;95234.66;;;21.79
34310;BMP280;61664;48.112;11.662;2023-07-30T01:57:11;95225.75;;;21.78
34310;BMP280;61664;48.112;11.662;2023-07-30T01:59:39;95227.38;;;21.74
34310;BMP280;61664;48.112;11.662;2023-07-30T02:02:07;95212.69;;;21.69
34310;BMP280;61664;48.112;11.662;2023-07-30T02:04:34;95237.88;;;21.70
34310;BMP280;61664;48.112;11.662;2023-07-30T02:07:01;95230.25;;;21.68
34310;BMP280;61664;48.112;11.662;2023-07-30T02:09:28;95226.25;;;21.62
34310;BMP280;61664;48.112;11.662;2023-07-30T02:11:55;95227.19;;;21.64
34310;BMP280;61664;48.112;11.662;2023-07-30T02:14:22;95228.63;;;21.65
34310;BMP280;61664;48.112;11.662;2023-07-30T02:16:49;95223.00;;;21.63
34310;BMP280;61664;48.112;11.662;2023-07-30T02:19:16;95229.00;;;21.69
34310;BMP280;61664;48.112;11.662;2023-07-30T02:21:43;95222.09;;;21.68
34310;BMP280;61664;48.112;11.662;2023-07-30T02:24:10;95227.38;;;21.74
34310;BMP280;61664;48.112;11.662;2023-07-30T02:26:39;95228.31;;;21.76
34310;BMP280;61664;48.112;11.662;2023-07-30T02:29:06;95220.31;;;21.78
34310;BMP280;61664;48.112;11.662;2023-07-30T02:31:33;95214.72;;;21.76
34310;BMP280;61664;48.112;11.662;2023-07-30T02:34:00;95223.59;;;21.84
34310;BMP280;61664;48.112;11.662;2023-07-30T02:36:27;95221.06;;;21.87
34310;BMP280;61664;48.112;11.662;2023-07-30T02:38:53;95208.91;;;21.88
34310;BMP280;61664;48.112;11.662;2023-07-30T02:41:20;95212.03;;;21.92
34310;BMP280;61664;48.112;11.662;2023-07-30T02:43:47;95212.38;;;21.96
34310;BMP280;61664;48.112;11.662;2023-07-30T02:46:14;95196.59;;;21.87
34310;BMP280;61664;48.112;11.662;2023-07-30T02:48:41;95205.50;;;21.95
34310;BMP280;61664;48.112;11.662;2023-07-30T02:51:08;95206.59;;;21.92
34310;BMP280;61664;48.112;11.662;2023-07-30T02:53:35;95209.66;;;21.96
34310;BMP280;61664;48.112;11.662;2023-07-30T02:56:02;95223.28;;;22.03
34310;BMP280;61664;48.112;11.662;2023-07-30T02:58:29;95229.78;;;21.93
34310;BMP280;61664;48.112;11.662;2023-07-30T03:01:05;95224.69;;;21.81
34310;BMP280;61664;48.112;11.662;2023-07-30T03:03:32;95222.50;;;21.72
34310;BMP280;61664;48.112;11.662;2023-07-30T03:05:59;95225.03;;;21.70
34310;BMP280;61664;48.112;11.662;2023-07-30T03:08:26;95228.81;;;21.67
34310;BMP280;61664;48.112;11.662;2023-07-30T03:10:53;95237.16;;;21.69
34310;BMP280;61664;48.112;11.662;2023-07-30T03:13:20;95238.63;;;21.70
34310;BMP280;61664;48.112;11.662;2023-07-30T03:15:48;95236.59;;;21.63
34310;BMP280;61664;48.112;11.662;2023-07-30T03:18:15;95231.09;;;21.48
34310;BMP280;61664;48.112;11.662;2023-07-30T03:20:42;95247.19;;;21.46
34310;BMP280;61664;48.112;11.662;2023-07-30T03:23:09;95252.47;;;21.44
34310;BMP280;61664;48.112;11.662;2023-07-30T03:25:35;95250.41;;;21.37
34310;BMP280;61664;48.112;11.662;2023-07-30T03:28:02;95258.97;;;21.41
34310;BMP280;61664;48.112;11.662;2023-07-30T03:30:29;95254.97;;;21.42
34310;BMP280;61664;48.112;11.662;2023-07-30T03:32:56;95257.13;;;21.36
34310;BMP280;61664;48.112;11.662;2023-07-30T03:35:23;95261.09;;;21.35
34310;BMP280;61664;48.112;11.662;2023-07-30T03:37:51;95254.78;;;21.32
34310;BMP280;61664;48.112;11.662;2023-07-30T03:40:18;95250.72;;;21.26
34310;BMP280;61664;48.112;11.662;2023-07-30T03:42:45;95250.56;;;21.24
34310;BMP280;61664;48.112;11.662;2023-07-30T03:45:12;95234.53;;;21.13
34310;BMP280;61664;48.112;11.662;2023-07-30T03:47:38;95248.69;;;21.19
34310;BMP280;61664;48.112;11.662;2023-07-30T03:50:06;95251.41;;;21.19
34310;BMP280;61664;48.112;11.662;2023-07-30T03:52:33;95253.81;;;21.22
34310;BMP280;61664;48.112;11.662;2023-07-30T03:55:00;95254.31;;;21.21
34310;BMP280;61664;48.112;11.662;2023-07-30T03:57:27;95268.16;;;21.30
34310;BMP280;61664;48.112;11.662;2023-07-30T03:59:53;95260.75;;;21.31
34310;BMP280;61664;48.112;11.662;2023-07-30T04:02:20;95254.78;;;21.32
34310;BMP280;61664;48.112;11.662;2023-07-30T04:04:47;95259.69;;;21.41
34310;BMP280;61664;48.112;11.662;2023-07-30T04:07:16;95270.75;;;21.43
34310;BMP280;61664;48.112;11.662;2023-07-30T04:09:43;95266.59;;;21.42
34310;BMP280;61664;48.112;11.662;2023-07-30T04:12:10;95255.84;;;21.37
34310;BMP280;61664;48.112;11.662;2023-07-30T04:14:37;95254.94;;;21.34
34310;BMP280;61664;48.112;11.662;2023-07-30T04:17:04;95258.91;;;21.33
34310;BMP280;61664;48.112;11.662;2023-07-30T04:19:31;95252.59;;;21.31
34310;BMP280;61664;48.112;11.662;2023-07-30T04:21:57;95260.22;;;21.32
34310;BMP280;61664;48.112;11.662;2023-07-30T04:24:24;95254.22;;;21.34
34310;BMP280;61664;48.112;11.662;2023-07-30T04:26:52;95265.84;;;21.42
34310;BMP280;61664;48.112;11.662;2023-07-30T04:29:19;95265.84;;;21.42
34310;BMP280;61664;48.112;11.662;2023-07-30T04:31:46;95276.03;;;21.49
34310;BMP280;61664;48.112;11.662;2023-07-30T04:34:13;95285.84;;;21.52
34310;BMP280;61664;48.112;11.662;2023-07-30T04:36:40;95270.59;;;21.49
34310;BMP280;61664;48.112;11.662;2023-07-30T04:39:07;95268.41;;;21.48
34310;BMP280;61664;48.112;11.662;2023-07-30T04:41:34;95286.94;;;21.57
34310;BMP280;61664;48.112;11.662;2023-07-30T04:44:03;95280.59;;;21.54
34310;BMP280;61664;48.112;11.662;2023-07-30T04:46:30;95285.16;;;21.59
34310;BMP280;61664;48.112;11.662;2023-07-30T04:49:03;95289.13;;;21.58
34310;BMP280;61664;48.112;11.662;2023-07-30T04:51:31;95285.53;;;21.63
34310;BMP280;61664;48.112;11.662;2023-07-30T04:53:58;95295.19;;;21.72
34310;BMP280;61664;48.112;11.662;2023-07-30T04:56:25;95297.53;;;21.75
34310;BMP280;61664;48.112;11.662;2023-07-30T04:58:54;95295.22;;;21.79
34310;BMP280;61664;48.112;11.662;2023-07-30T05:01:21;95295.59;;;21.83
34310;BMP280;61664;48.112;11.662;2023-07-30T05:03:48;95304.31;;;21.90
34310;BMP280;61664;48.112;11.662;2023-07-30T05:06:15;95281.63;;;21.79
34310;BMP280;61664;48.112;11.662;2023-07-30T05:08:42;95307.38;;;21.94
34310;BMP280;61664;48.112;11.662;2023-07-30T05:11:08;95311.38;;;21.93
34310;BMP280;61664;48.112;11.662;2023-07-30T05:13:35;95317.75;;;21.95
34310;BMP280;61664;48.112;11.662;2023-07-30T05:16:02;95304.84;;;21.88
34310;BMP280;61664;48.112;11.662;2023-07-30T05:18:30;95315.38;;;21.92
34310;BMP280;61664;48.112;11.662;2023-07-30T05:20:56;95306.66;;;21.93
34310;BMP280;61664;48.112;11.662;2023-07-30T05:23:24;95303.38;;;21.87
34310;BMP280;61664;48.112;11.662;2023-07-30T05:25:50;95311.38;;;21.93
34310;BMP280;61664;48.112;11.662;2023-07-30T05:28:18;95322.31;;;22.00
34310;BMP280;61664;48.112;11.662;2023-07-30T05:30:45;95318.13;;;22.07
34310;BMP280;61664;48.112;11.662;2023-07-30T05:33:11;95329.56;;;22.13
34310;BMP280;61664;48.112;11.662;2023-07-30T05:35:38;95321.97;;;22.11
34310;BMP280;61664;48.112;11.662;2023-07-30T05:38:05;95322.34;;;22.15
34310;BMP280;61664;48.112;11.662;2023-07-30T05:40:35;95325.44;;;22.19
34310;BMP280;61664;48.112;11.662;2023-07-30T05:43:05;95327.59;;;22.29
34310;BMP280;61664;48.112;11.662;2023-07-30T05:45:34;95334.56;;;22.45
34310;BMP280;61664;48.112;11.662;2023-07-30T05:48:01;95341.13;;;22.49
34310;BMP280;61664;48.112;11.662;2023-07-30T05:50:28;95339.09;;;22.57
34310;BMP280;61664;48.112;11.662;2023-07-30T05:52:55;95340.91;;;22.62
34310;BMP280;61664;48.112;11.662;2023-07-30T05:55:22;95328.22;;;22.65
34310;BMP280;61664;48.112;11.662;2023-07-30T05:57:49;95336.22;;;22.71
34310;BMP280;61664;48.112;11.662;2023-07-30T06:00:16;95318.63;;;22.72
34310;BMP280;61664;48.112;11.662;2023-07-30T06:02:43;95334.78;;;22.77
34310;BMP280;61664;48.112;11.662;2023-07-30T06:05:10;95333.31;;;22.84
34310;BMP280;61664;48.112;11.662;2023-07-30T06:07:37;95327.69;;;22.82
34310;BMP280;61664;48.112;11.662;2023-07-30T06:10:05;95322.44;;;22.84
34310;BMP280;61664;48.112;11.662;2023-07-30T06:12:32;95337.66;;;22.94
34310;BMP280;61664;48.112;11.662;2023-07-30T06:14:59;95332.22;;;23.02
34310;BMP280;61664;48.112;11.662;2023-07-30T06:17:25;95337.47;;;23.07
34310;BMP280;61664;48.112;11.662;2023-07-30T06:19:53;95337.47;;;23.07
34310;BMP280;61664;48.112;11.662;2023-07-30T06:22:19;95335.47;;;23.16
34310;BMP280;61664;48.112;11.662;2023-07-30T06:24:46;95325.28;;;23.16
34310;BMP280;61664;48.112;11.662;2023-07-30T06:27:13;95340.19;;;23.23
34310;BMP280;61664;48.112;11.662;2023-07-30T06:29:40;95337.06;;;23.26
34310;BMP280;61664;48.112;11.662;2023-07-30T06:32:07;95332.56;;;23.21
34310;BMP280;61664;48.112;11.662;2023-07-30T06:34:34;95330.34;;;23.27
34310;BMP280;61664;48.112;11.662;2023-07-30T06:37:01;95333.28;;;23.29
34310;BMP280;61664;48.112;11.662;2023-07-30T06:39:28;95336.31;;;23.41
34310;BMP280;61664;48.112;11.662;2023-07-30T06:41:55;95343.25;;;23.42
34310;BMP280;61664;48.112;11.662;2023-07-30T06:44:22;95339.03;;;23.48
34310;BMP280;61664;48.112;11.662;2023-07-30T06:46:51;95335.25;;;23.44
34310;BMP280;61664;48.112;11.662;2023-07-30T06:49:18;95347.75;;;23.55
34310;BMP280;61664;48.112;11.662;2023-07-30T06:51:45;95337.00;;;23.57
34310;BMP280;61664;48.112;11.662;2023-07-30T06:54:12;95337.91;;;23.59
34310;BMP280;61664;48.112;11.662;2023-07-30T06:56:39;95347.34;;;23.66
34310;BMP280;61664;48.112;11.662;2023-07-30T06:59:06;95331.72;;;23.66
34310;BMP280;61664;48.112;11.662;2023-07-30T07:01:33;95335.50;;;23.78
34310;BMP280;61664;48.112;11.662;2023-07-30T07:04:00;95325.47;;;23.81
34310;BMP280;61664;48.112;11.662;2023-07-30T07:06:26;95325.81;;;23.85
34310;BMP280;61664;48.112;11.662;2023-07-30T07:08:53;95333.09;;;23.90
34310;BMP280;61664;48.112;11.662;2023-07-30T07:11:20;95345.44;;;23.99
34310;BMP280;61664;48.112;11.662;2023-07-30T07:13:47;95338.47;;;24.05
34310;BMP280;61664;48.112;11.662;2023-07-30T07:16:14;95352.97;;;24.15
34310;BMP280;61664;48.112;11.662;2023-07-30T07:18:41;95337.66;;;24.20
34310;BMP280;61664;48.112;11.662;2023-07-30T07:21:09;95346.63;;;24.38
34310;BMP280;61664;48.112;11.662;2023-07-30T07:23:36;95341.84;;;24.46
34310;BMP280;61664;48.112;11.662;2023-07-30T07:26:03;95346.53;;;24.53
34310;BMP280;61664;48.112;11.662;2023-07-30T07:28:30;95343.19;;;24.62
34310;BMP280;61664;48.112;11.662;2023-07-30T07:30:57;95339.44;;;24.74
34310;BMP280;61664;48.112;11.662;2023-07-30T07:33:24;95342.63;;;24.88
34310;BMP280;61664;48.112;11.662;2023-07-30T07:35:51;95342.91;;;25.00
34310;BMP280;61664;48.112;11.662;2023-07-30T07:38:18;95344.09;;;25.06
34310;BMP280;61664;48.112;11.662;2023-07-30T07:40:45;95350.53;;;25.19
34310;BMP280;61664;48.112;11.662;2023-07-30T07:43:12;95348.06;;;25.30
34310;BMP280;61664;48.112;11.662;2023-07-30T07:45:39;95346.59;;;25.46
34310;BMP280;61664;48.112;11.662;2023-07-30T07:48:06;95349.91;;;25.45
34310;BMP280;61664;48.112;11.662;2023-07-30T07:50:33;95351.19;;;25.44
34310;BMP280;61664;48.112;11.662;2023-07-30T07:53:00;95359.53;;;25.46
34310;BMP280;61664;48.112;11.662;2023-07-30T07:55:27;95359.53;;;25.46
34310;BMP280;61664;48.112;11.662;2023-07-30T07:57:54;95341.84;;;25.47
34310;BMP280;61664;48.112;11.662;2023-07-30T08:00:21;95357.03;;;25.75
34310;BMP280;61664;48.112;11.662;2023-07-30T08:02:48;95355.50;;;25.81
34310;BMP280;61664;48.112;11.662;2023-07-30T08:05:17;95355.94;;;25.78
34310;BMP280;61664;48.112;11.662;2023-07-30T08:07:46;95353.72;;;25.76
34310;BMP280;61664;48.112;11.662;2023-07-30T08:10:13;95353.44;;;25.72
34310;BMP280;61664;48.112;11.662;2023-07-30T08:12:41;95340.69;;;25.67
34310;BMP280;61664;48.112;11.662;2023-07-30T08:15:09;95359.19;;;25.76
34310;BMP280;61664;48.112;11.662;2023-07-30T08:17:36;95363.53;;;25.79
34310;BMP280;61664;48.112;11.662;2023-07-30T08:20:03;95358.38;;;26.00
34310;BMP280;61664;48.112;11.662;2023-07-30T08:22:31;95351.84;;;26.23
34310;BMP280;61664;48.112;11.662;2023-07-30T08:24:58;95365.91;;;26.46
34310;BMP280;61664;48.112;11.662;2023-07-30T08:27:24;95364.25;;;26.60
34310;BMP280;61664;48.112;11.662;2023-07-30T08:29:51;95354.25;;;26.55
34310;BMP280;61664;48.112;11.662;2023-07-30T08:32:18;95370.88;;;26.57
34310;BMP280;61664;48.112;11.662;2023-07-30T08:34:45;95354.22;;;26.45
34310;BMP280;61664;48.112;11.662;2023-07-30T08:37:12;95349.50;;;26.56
34310;BMP280;61664;48.112;11.662;2023-07-30T08:39:39;95351.34;;;26.80
34310;BMP280;61664;48.112;11.662;2023-07-30T08:42:06;95340.69;;;27.03
34310;BMP280;61664;48.112;11.662;2023-07-30T08:44:33;95348.34;;;27.33
34310;BMP280;61664;48.112;11.662;2023-07-30T08:47:00;95354.09;;;27.57
34310;BMP280;61664;48.112;11.662;2023-07-30T08:49:27;95345.44;;;27.79
34310;BMP280;61664;48.112;11.662;2023-07-30T08:52:02;95360.50;;;28.81
34310;BMP280;61664;48.112;11.662;2023-07-30T08:54:31;95344.53;;;30.22
34310;BMP280;61664;48.112;11.662;2023-07-30T08:56:58;95342.44;;;31.82
34310;BMP280;61664;48.112;11.662;2023-07-30T08:59:31;95336.25;;;33.22
34310;BMP280;61664;48.112;11.662;2023-07-30T09:02:00;95333.34;;;34.45
34310;BMP280;61664;48.112;11.662;2023-07-30T09:04:34;95334.19;;;35.55
34310;BMP280;61664;48.112;11.662;2023-07-30T09:07:04;95331.84;;;36.48
34310;BMP280;61664;48.112;11.662;2023-07-30T09:09:36;95322.13;;;37.40
34310;BMP280;61664;48.112;11.662;2023-07-30T09:12:04;95329.72;;;37.61
34310;BMP280;61664;48.112;11.662;2023-07-30T09:14:39;95323.56;;;37.93
34310;BMP280;61664;48.112;11.662;2023-07-30T09:17:06;95313.22;;;37.97
34310;BMP280;61664;48.112;11.662;2023-07-30T09:19:35;95325.69;;;36.95
34310;BMP280;61664;48.112;11.662;2023-07-30T09:22:06;95316.28;;;36.00
34310;BMP280;61664;48.112;11.662;2023-07-30T09:24:33;95309.38;;;36.21
34310;BMP280;61664;48.112;11.662;2023-07-30T09:27:03;95319.81;;;36.85
34310;BMP280;61664;48.112;11.662;2023-07-30T09:29:31;95314.03;;;37.50
34310;BMP280;61664;48.112;11.662;2023-07-30T09:31:58;95319.47;;;37.96
34310;BMP280;61664;48.112;11.662;2023-07-30T09:34:25;95317.91;;;38.44
34310;BMP280;61664;48.112;11.662;2023-07-30T09:36:54;95306.50;;;38.95
34310;BMP280;61664;48.112;11.662;2023-07-30T09:39:23;95309.25;;;39.25
34310;BMP280;61664;48.112;11.662;2023-07-30T09:41:53;95314.69;;;39.53
34310;BMP280;61664;48.112;11.662;2023-07-30T09:44:26;95304.38;;;39.26
34310;BMP280;61664;48.112;11.662;2023-07-30T09:46:53;95309.66;;;39.45
34310;BMP280;61664;48.112;11.662;2023-07-30T09:49:20;95304.81;;;39.86
34310;BMP280;61664;48.112;11.662;2023-07-30T09:51:52;95293.94;;;39.64
34310;BMP280;61664;48.112;11.662;2023-07-30T09:54:19;95318.97;;;39.96
34310;BMP280;61664;48.112;11.662;2023-07-30T09:56:46;95307.00;;;39.20
34310;BMP280;61664;48.112;11.662;2023-07-30T09:59:13;95312.09;;;38.34
34310;BMP280;61664;48.112;11.662;2023-07-30T10:01:48;95307.09;;;37.02
34310;BMP280;61664;48.112;11.662;2023-07-30T10:04:20;95303.16;;;36.22
34310;BMP280;61664;48.112;11.662;2023-07-30T10:07:11;95311.47;;;36.00
34310;BMP280;61664;48.112;11.662;2023-07-30T10:09:44;95319.06;;;37.06
34310;BMP280;61664;48.112;11.662;2023-07-30T10:12:19;95316.91;;;37.52
34310;BMP280;61664;48.112;11.662;2023-07-30T10:14:47;95315.63;;;37.08
34310;BMP280;61664;48.112;11.662;2023-07-30T10:17:17;95310.00;;;35.78
34310;BMP280;61664;48.112;11.662;2023-07-30T10:19:47;95322.56;;;34.35
34310;BMP280;61664;48.112;11.662;2023-07-30T10:25:02;95331.22;;;32.32
34310;BMP280;61664;48.112;11.662;2023-07-30T10:27:40;95346.47;;;31.28
34310;BMP280;61664;48.112;11.662;2023-07-30T10:30:18;95339.50;;;29.84
34310;BMP280;61664;48.112;11.662;2023-07-30T10:38:22;95333.31;;;26.86
34310;BMP280;61664;48.112;11.662;2023-07-30T10:43:39;95345.41;;;27.99
34310;BMP280;61664;48.112;11.662;2023-07-30T10:46:08;95328.53;;;28.97
34310;BMP280;61664;48.112;11.662;2023-07-30T10:48:38;95328.28;;;29.58
34310;BMP280;61664;48.112;11.662;2023-07-30T10:51:09;95330.50;;;29.95
34310;BMP280;61664;48.112;11.662;2023-07-30T10:53:37;95320.25;;;30.07
34310;BMP280;61664;48.112;11.662;2023-07-30T10:56:06;95316.88;;;30.32
34310;BMP280;61664;48.112;11.662;2023-07-30T10:58:36;95316.38;;;30.47
34310;BMP280;61664;48.112;11.662;2023-07-30T11:01:05;95310.16;;;30.46
34310;BMP280;61664;48.112;11.662;2023-07-30T11:03:35;95308.75;;;30.71
34310;BMP280;61664;48.112;11.662;2023-07-30T11:06:03;95311.69;;;30.98
34310;BMP280;61664;48.112;11.662;2023-07-30T11:08:42;95308.25;;;31.11
34310;BMP280;61664;48.112;11.662;2023-07-30T11:11:10;95299.66;;;31.05
34310;BMP280;61664;48.112;11.662;2023-07-30T11:13:40;95314.44;;;30.98
34310;BMP280;61664;48.112;11.662;2023-07-30T11:16:09;95321.34;;;30.74
34310;BMP280;61664;48.112;11.662;2023-07-30T11:18:38;95323.19;;;30.69
34310;BMP280;61664;48.112;11.662;2023-07-30T11:21:11;95314.41;;;30.61
34310;BMP280;61664;48.112;11.662;2023-07-30T11:23:40;95303.31;;;30.47
34310;BMP280;61664;48.112;11.662;2023-07-30T11:26:19;95313.88;;;30.39
34310;BMP280;61664;48.112;11.662;2023-07-30T11:28:47;95308.84;;;30.36
34310;BMP280;61664;48.112;11.662;2023-07-30T11:31:18;95313.28;;;30.29
34310;BMP280;61664;48.112;11.662;2023-07-30T11:33:48;95303.34;;;30.13
34310;BMP280;61664;48.112;11.662;2023-07-30T11:36:21;95310.88;;;30.12
34310;BMP280;61664;48.112;11.662;2023-07-30T11:38:49;95309.09;;;30.17
34310;BMP280;61664;48.112;11.662;2023-07-30T11:41:17;95310.53;;;30.06
34310;BMP280;61664;48.112;11.662;2023-07-30T11:43:45;95317.59;;;29.86
34310;BMP280;61664;48.112;11.662;2023-07-30T11:46:18;95302.72;;;29.68
34310;BMP280;61664;48.112;11.662;2023-07-30T11:49:10;95307.72;;;29.59
34310;BMP280;61664;48.112;11.662;2023-07-30T11:51:37;95303.03;;;29.62
34310;BMP280;61664;48.112;11.662;2023-07-30T11:54:05;95310.19;;;29.55
34310;BMP280;61664;48.112;11.662;2023-07-30T11:56:33;95304.81;;;29.46
34310;BMP280;61664;48.112;11.662;2023-07-30T11:59:07;95334.78;;;29.30
34310;BMP280;61664;48.112;11.662;2023-07-30T12:01:36;95338.28;;;29.09
34310;BMP280;61664;48.112;11.662;2023-07-30T12:04:06;95337.72;;;29.11
34310;BMP280;61664;48.112;11.662;2023-07-30T12:06:50;95338.16;;;29.29
34310;BMP280;61664;48.112;11.662;2023-07-30T12:09:23;95340.53;;;29.34
34310;BMP280;61664;48.112;11.662;2023-07-30T12:12:11;95338.31;;;29.42
34310;BMP280;61664;48.112;11.662;2023-07-30T12:14:52;95333.78;;;29.47
34310;BMP280;61664;48.112;11.662;2023-07-30T12:17:20;95337.84;;;29.46
34310;BMP280;61664;48.112;11.662;2023-07-30T12:19:46;95328.38;;;29.37
34310;BMP280;61664;48.112;11.662;2023-07-30T12:22:13;95329.84;;;29.17
34310;BMP280;61664;48.112;11.662;2023-07-30T12:24:41;95338.72;;;29.06
34310;BMP280;61664;48.112;11.662;2023-07-30T12:27:08;95345.56;;;29.05
34310;BMP280;61664;48.112;11.662;2023-07-30T12:29:35;95331.56;;;29.01
34310;BMP280;61664;48.112;11.662;2023-07-30T12:32:02;95330.75;;;29.10
34310;BMP280;61664;48.112;11.662;2023-07-30T12:34:30;95325.78;;;29.18
34310;BMP280;61664;48.112;11.662;2023-07-30T12:36:57;95340.94;;;29.40
34310;BMP280;61664;48.112;11.662;2023-07-30T12:39:25;95354.44;;;29.81
34310;BMP280;61664;48.112;11.662;2023-07-30T12:41:52;95352.22;;;30.12
34310;BMP280;61664;48.112;11.662;2023-07-30T12:44:19;95348.88;;;30.37
34310;BMP280;61664;48.112;11.662;2023-07-30T12:46:46;95356.41;;;30.48
34310;BMP280;61664;48.112;11.662;2023-07-30T12:49:12;95357.00;;;30.58
34310;BMP280;61664;48.112;11.662;2023-07-30T12:51:39;95356.28;;;30.58
34310;BMP280;61664;48.112;11.662;2023-07-30T12:54:07;95376.75;;;30.54
34310;BMP280;61664;48.112;11.662;2023-07-30T12:56:34;95348.28;;;30.38
34310;BMP280;61664;48.112;11.662;2023-07-30T12:59:03;95357.59;;;30.56
34310;BMP280;61664;48.112;11.662;2023-07-30T13:01:30;95359.50;;;30.66
34310;BMP280;61664;48.112;11.662;2023-07-30T13:03:57;95358.78;;;30.53
34310;BMP280;61664;48.112;11.662;2023-07-30T13:06:24;95356.03;;;30.53
34310;BMP280;61664;48.112;11.662;2023-07-30T13:08:51;95361.78;;;30.58
34310;BMP280;61664;48.112;11.662;2023-07-30T13:11:18;95357.69;;;30.58
34310;BMP280;61664;48.112;11.662;2023-07-30T13:13:45;95362.81;;;30.64
34310;BMP280;61664;48.112;11.662;2023-07-30T13:16:12;95354.72;;;30.54
34310;BMP280;61664;48.112;11.662;2023-07-30T13:18:39;95348.75;;;30.46
34310;BMP280;61664;48.112;11.662;2023-07-30T13:21:06;95352.09;;;30.56
34310;BMP280;61664;48.112;11.662;2023-07-30T13:23:33;95344.06;;;30.49
34310;BMP280;61664;48.112;11.662;2023-07-30T13:26:00;95355.53;;;30.69
34310;BMP280;61664;48.112;11.662;2023-07-30T13:28:28;95345.69;;;30.77
34310;BMP280;61664;48.112;11.662;2023-07-30T13:30:55;95356.06;;;31.02
34310;BMP280;61664;48.112;11.662;2023-07-30T13:33:24;95350.81;;;31.45
34310;BMP280;61664;48.112;11.662;2023-07-30T13:35:50;95355.06;;;31.34
34310;BMP280;61664;48.112;11.662;2023-07-30T13:38:17;95353.13;;;31.12
34310;BMP280;61664;48.112;11.662;2023-07-30T13:40:47;95360.31;;;30.80
34310;BMP280;61664;48.112;11.662;2023-07-30T13:43:14;95372.69;;;30.55
34310;BMP280;61664;48.112;11.662;2023-07-30T13:45:40;95376.19;;;30.21
34310;BMP280;61664;48.112;11.662;2023-07-30T13:48:07;95381.88;;;29.90
34310;BMP280;61664;48.112;11.662;2023-07-30T13:50:36;95381.06;;;29.55
34310;BMP280;61664;48.112;11.662;2023-07-30T13:53:03;95403.31;;;29.26
34310;BMP280;61664;48.112;11.662;2023-07-30T13:55:30;95471.91;;;28.82
34310;BMP280;61664;48.112;11.662;2023-07-30T13:57:56;95446.69;;;27.75
34310;BMP280;61664;48.112;11.662;2023-07-30T14:00:23;95428.75;;;26.71
34310;BMP280;61664;48.112;11.662;2023-07-30T14:02:50;95437.88;;;26.20
34310;BMP280;61664;48.112;11.662;2023-07-30T14:05:18;95447.56;;;25.86
34310;BMP280;61664;48.112;11.662;2023-07-30T14:07:45;95454.81;;;25.74
34310;BMP280;61664;48.112;11.662;2023-07-30T14:10:12;95449.84;;;25.97
34310;BMP280;61664;48.112;11.662;2023-07-30T14:12:39;95436.47;;;26.92
34310;BMP280;61664;48.112;11.662;2023-07-30T14:15:07;95435.91;;;28.37